Time;durP1;ratioP1;P1;durP2;ratioP2;P2;SDS_P1;SDS_P2;PMS_P1;PMS_P2;Temp;Humidity;BMP_temperature;BMP_pressure;BME280_temperature;BME280_humidity;BME280_pressure;Samples;Min_cycle;Max_cycle;Signal;HPM_P1;HPM_P2
2022/12/27 00:01:46;;;;;;;25.17;14.80;;;7.40;94.20;;;;;;6154693;23;20398;-81
2022/12/27 00:04:14;;;;;;;24.80;13.77;;;7.30;94.40;;;;;;6152792;23;20769;-80
2022/12/27 00:06:43;;;;;;;23.63;13.60;;;7.30;94.40;;;;;;6153668;23;20176;-80
2022/12/27 00:09:11;;;;;;;24.67;14.13;;;7.30;94.30;;;;;;6159827;23;20682;-81
2022/12/27 00:11:39;;;;;;;22.00;11.63;;;7.30;94.20;;;;;;6158507;23;20235;-81
2022/12/27 00:14:11;;;;;;;30.77;13.90;;;7.30;94.20;;;;;;6156391;23;20558;-80
2022/12/27 00:16:40;;;;;;;23.60;12.67;;;7.30;94.60;;;;;;6155405;23;20171;-79
2022/12/27 00:19:08;;;;;;;22.40;13.40;;;7.20;94.20;;;;;;6157261;23;20637;-80
2022/12/27 00:21:37;;;;;;;24.57;13.27;;;7.20;94.20;;;;;;6155016;23;20175;-80
2022/12/27 00:24:05;;;;;;;29.13;13.83;;;7.20;94.20;;;;;;6155552;23;20172;-80
2022/12/27 00:26:35;;;;;;;24.63;13.30;;;7.10;94.20;;;;;;6154637;23;20548;-79
2022/12/27 00:29:03;;;;;;;24.63;13.23;;;7.10;94.30;;;;;;6155778;23;20199;-80
2022/12/27 00:31:34;;;;;;;22.27;12.50;;;7.10;94.30;;;;;;6157381;23;20186;-80
2022/12/27 00:34:04;;;;;;;26.57;12.43;;;7.10;94.30;;;;;;6158321;23;20192;-80
2022/12/27 00:36:32;;;;;;;27.15;14.20;;;7.00;94.30;;;;;;6157306;23;20382;-81
2022/12/27 00:39:01;;;;;;;24.37;13.03;;;7.00;94.30;;;;;;6158779;23;20539;-81
2022/12/27 00:41:30;;;;;;;21.53;12.50;;;6.90;94.40;;;;;;6154286;23;20488;-79
2022/12/27 00:43:58;;;;;;;25.93;13.37;;;6.90;94.40;;;;;;6155216;23;20227;-80
2022/12/27 00:46:26;;;;;;;27.73;13.27;;;6.90;94.80;;;;;;6150859;23;20189;-80
2022/12/27 00:48:57;;;;;;;24.07;12.37;;;6.80;94.40;;;;;;6153759;23;20728;-80
2022/12/27 00:51:26;;;;;;;27.53;13.40;;;6.80;94.40;;;;;;6153742;23;20163;-80
2022/12/27 00:53:54;;;;;;;21.37;11.67;;;6.80;94.40;;;;;;6156101;23;20247;-82
2022/12/27 00:56:25;;;;;;;23.83;11.80;;;6.80;94.30;;;;;;6152788;23;20503;-81
2022/12/27 00:58:54;;;;;;;23.27;11.93;;;6.80;94.30;;;;;;6154882;23;20489;-79
2022/12/27 01:01:24;;;;;;;27.65;13.73;;;6.70;94.30;;;;;;6153140;23;20407;-81
2022/12/27 01:03:53;;;;;;;20.37;11.93;;;6.70;94.40;;;;;;6153761;23;20170;-81
2022/12/27 01:06:27;;;;;;;22.50;11.93;;;6.70;94.40;;;;;;6153208;23;20184;-79
2022/12/27 01:08:56;;;;;;;24.87;13.40;;;6.60;94.40;;;;;;6156317;23;20179;-80
2022/12/27 01:11:27;;;;;;;22.20;12.20;;;6.60;94.30;;;;;;6153328;23;20398;-80
2022/12/27 01:13:58;;;;;;;22.73;13.32;;;6.60;94.30;;;;;;6151368;23;20401;-79
2022/12/27 01:16:28;;;;;;;26.10;13.30;;;6.50;94.40;;;;;;6153907;23;20164;-79
2022/12/27 01:18:57;;;;;;;21.43;11.90;;;6.50;94.40;;;;;;6152241;23;20196;-80
2022/12/27 01:21:29;;;;;;;22.47;11.80;;;6.40;94.80;;;;;;6153543;23;20183;-79
2022/12/27 01:23:58;;;;;;;25.73;13.50;;;6.40;94.80;;;;;;6157654;23;20157;-79
2022/12/27 01:26:26;;;;;;;25.55;14.43;;;6.40;94.60;;;;;;6154838;23;20446;-79
2022/12/27 01:28:55;;;;;;;22.40;12.47;;;6.40;94.80;;;;;;6158038;23;20188;-79
2022/12/27 01:31:26;;;;;;;22.17;12.23;;;6.30;94.70;;;;;;6156168;23;20173;-80
2022/12/27 01:33:56;;;;;;;20.97;12.10;;;6.30;94.60;;;;;;6154491;23;20171;-79
2022/12/27 01:36:27;;;;;;;20.03;11.93;;;6.30;94.60;;;;;;6154281;23;20973;-79
2022/12/27 01:38:55;;;;;;;20.67;11.60;;;6.20;94.60;;;;;;6154101;23;20217;-80
2022/12/27 01:44:49;;;;;;;25.97;13.43;;;6.20;94.70;;;;;;6158503;23;20168;-80
2022/12/27 01:47:27;;;;;;;21.60;11.93;;;6.10;94.80;;;;;;6141303;23;20179;-80
2022/12/27 01:50:05;;;;;;;27.40;15.45;;;6.10;94.80;;;;;;6157134;23;20402;-78
2022/12/27 01:52:39;;;;;;;22.00;12.80;;;6.10;95.00;;;;;;6158474;23;20167;-79
2022/12/27 01:55:15;;;;;;;24.20;12.57;;;6.10;95.10;;;;;;6159359;23;20170;-79
2022/12/27 01:57:43;;;;;;;22.30;12.60;;;6.00;95.00;;;;;;6161944;23;20650;-81
2022/12/27 02:00:12;;;;;;;22.03;11.53;;;6.00;95.10;;;;;;6159738;23;20509;-79
2022/12/27 02:02:41;;;;;;;25.70;15.02;;;6.00;95.20;;;;;;6159464;23;20390;-80
2022/12/27 02:05:12;;;;;;;23.37;12.53;;;6.00;95.40;;;;;;6159578;23;20227;-78
2022/12/27 02:07:49;;;;;;;23.63;11.93;;;6.00;95.40;;;;;;6161433;23;20214;-78
2022/12/27 02:10:18;;;;;;;23.67;12.33;;;5.90;95.40;;;;;;6158285;23;20180;-79
2022/12/27 02:12:46;;;;;;;24.07;12.60;;;5.90;95.50;;;;;;6161810;23;20182;-79
2022/12/27 02:15:14;;;;;;;23.27;13.00;;;5.90;95.60;;;;;;6159303;23;20183;-79
2022/12/27 02:17:43;;;;;;;21.33;12.17;;;5.90;95.60;;;;;;6162333;23;20230;-80
2022/12/27 02:20:16;;;;;;;21.60;12.97;;;5.90;95.60;;;;;;6157888;23;20183;-78
2022/12/27 02:26:39;;;;;;;28.43;14.97;;;5.80;95.70;;;;;;6148331;23;20390;-80
2022/12/27 02:29:26;;;;;;;25.17;12.87;;;5.90;95.70;;;;;;6158420;23;20181;-78
2022/12/27 02:31:59;;;;;;;21.73;12.60;;;5.90;95.70;;;;;;6156038;23;20199;-79
2022/12/27 02:34:38;;;;;;;22.20;11.97;;;5.90;95.70;;;;;;6156294;23;20164;-81
2022/12/27 02:37:10;;;;;;;27.57;13.07;;;5.90;95.70;;;;;;6153578;23;20218;-80
2022/12/27 02:39:42;;;;;;;24.70;13.00;;;5.80;96.10;;;;;;6158366;23;20163;-81
2022/12/27 02:53:40;;;;;;;27.90;14.10;;;5.80;95.80;;;;;;6157128;23;20240;-80
2022/12/27 02:59:23;;;;;;;24.70;13.33;;;5.80;95.80;;;;;;6155012;23;20160;-79
2022/12/27 03:05:05;;;;;;;27.73;14.20;;;5.80;95.80;;;;;;6094201;23;20180;-79
2022/12/27 03:07:38;;;;;;;25.17;13.43;;;5.70;95.70;;;;;;6157103;23;20215;-78
2022/12/27 03:16:20;;;;;;;32.53;17.00;;;5.70;95.90;;;;;;6152211;23;20390;-80
2022/12/27 03:19:03;;;;;;;31.80;15.93;;;5.70;96.10;;;;;;6153876;23;20160;-80
2022/12/27 03:27:17;;;;;;;32.60;16.73;;;5.60;96.10;;;;;;6153696;23;20383;-81
2022/12/27 03:35:33;;;;;;;27.10;13.90;;;5.60;96.10;;;;;;6155051;23;20238;-80
2022/12/27 03:38:04;;;;;;;29.93;14.73;;;5.60;96.00;;;;;;6157309;23;20354;-80
2022/12/27 03:43:31;;;;;;;25.73;13.70;;;5.60;96.30;;;;;;6155349;23;20215;-80
2022/12/27 03:49:05;;;;;;;29.03;14.23;;;5.50;96.20;;;;;;6156350;23;20168;-81
2022/12/27 03:51:39;;;;;;;32.83;16.70;;;5.50;96.10;;;;;;6152820;23;20390;-81
2022/12/27 03:54:12;;;;;;;28.70;13.97;;;5.50;96.20;;;;;;6155642;23;20164;-81
2022/12/27 03:56:45;;;;;;;29.83;15.37;;;5.50;96.10;;;;;;6160292;23;20165;-81
2022/12/27 03:59:14;;;;;;;27.83;13.70;;;5.60;96.00;;;;;;6161680;23;20167;-80
2022/12/27 04:01:42;;;;;;;28.30;15.33;;;5.60;96.00;;;;;;6158147;23;20194;-80
2022/12/27 04:04:10;;;;;;;26.90;14.13;;;5.60;95.90;;;;;;6160082;23;20179;-79
2022/12/27 04:06:40;;;;;;;26.23;13.83;;;5.60;95.90;;;;;;6160467;23;20247;-79
2022/12/27 04:36:49;;;;;;;32.07;15.63;;;5.70;96.10;;;;;;6160761;23;20178;-80
2022/12/27 04:39:19;;;;;;;31.13;15.60;;;5.70;96.00;;;;;;6158624;23;20214;-79
2022/12/27 04:55:58;;;;;;;30.23;14.93;;;5.90;95.60;;;;;;6158184;23;20159;-80
2022/12/27 04:58:27;;;;;;;28.60;14.50;;;5.90;95.50;;;;;;6156637;23;20566;-80
2022/12/27 05:03:48;;;;;;;29.30;15.67;;;5.90;95.30;;;;;;6156182;23;20164;-78
2022/12/27 05:06:17;;;;;;;29.77;15.00;;;5.90;95.60;;;;;;6154953;23;20245;-79
2022/12/27 05:14:18;;;;;;;30.13;16.00;;;5.90;95.20;;;;;;6155399;23;20169;-80
2022/12/27 05:16:47;;;;;;;38.80;17.85;;;5.90;95.10;;;;;;6154880;23;20397;-80
2022/12/27 05:19:15;;;;;;;32.07;15.93;;;5.90;95.10;;;;;;6154038;23;20752;-80
2022/12/27 05:25:33;;;;;;;31.60;16.27;;;5.90;95.00;;;;;;6155022;23;20250;-79
2022/12/27 05:27:20;;;;;;;35.47;18.40;;;5.90;94.90;;;;;;6152190;23;20848;-80
2022/12/27 05:29:49;;;;;;;32.10;16.60;;;6.00;95.00;;;;;;6146256;23;20247;-80
2022/12/27 05:32:17;;;;;;;33.17;16.40;;;6.00;95.00;;;;;;6156878;23;20624;-80
2022/12/27 05:34:45;;;;;;;33.03;16.37;;;6.00;95.00;;;;;;6155865;23;20179;-80
2022/12/27 05:37:14;;;;;;;33.80;16.77;;;6.00;95.00;;;;;;6160596;23;20176;-80
2022/12/27 05:39:42;;;;;;;34.65;18.50;;;6.00;95.00;;;;;;6162802;23;20626;-81
2022/12/27 05:42:10;;;;;;;37.43;16.70;;;6.00;95.10;;;;;;6153135;23;20630;-79
2022/12/27 05:44:40;;;;;;;33.13;16.80;;;6.00;95.10;;;;;;6157993;23;20180;-80
2022/12/27 05:47:08;;;;;;;32.37;16.47;;;6.00;95.10;;;;;;6156312;23;20176;-80
2022/12/27 05:49:38;;;;;;;31.13;15.47;;;6.00;95.00;;;;;;6159948;23;20180;-81
2022/12/27 05:52:07;;;;;;;35.40;18.80;;;6.00;94.90;;;;;;6152660;23;20867;-80
2022/12/27 05:54:35;;;;;;;34.27;16.13;;;6.10;95.10;;;;;;6158251;23;20178;-81
2022/12/27 05:57:04;;;;;;;29.43;16.20;;;6.10;95.10;;;;;;6159378;23;20177;-80
2022/12/27 05:59:32;;;;;;;30.67;15.37;;;6.10;95.00;;;;;;6158929;23;20175;-80
2022/12/27 06:02:02;;;;;;;32.30;14.60;;;6.10;94.80;;;;;;6156902;23;20164;-80
2022/12/27 06:04:30;;;;;;;31.92;17.67;;;6.20;95.20;;;;;;6153272;23;20390;-80
2022/12/27 06:06:59;;;;;;;31.40;16.03;;;6.10;95.00;;;;;;6152205;23;20184;-80
2022/12/27 06:09:27;;;;;;;36.97;16.50;;;6.10;94.90;;;;;;6159365;23;20176;-81
2022/12/27 06:11:55;;;;;;;31.00;15.97;;;6.20;94.90;;;;;;6157908;23;20263;-81
2022/12/27 06:14:24;;;;;;;30.77;16.50;;;6.20;94.80;;;;;;6161766;23;20180;-82
2022/12/27 06:16:52;;;;;;;37.73;18.03;;;6.20;94.70;;;;;;6163669;23;20176;-82
2022/12/27 06:19:22;;;;;;;33.43;16.43;;;6.20;94.60;;;;;;6159126;23;20209;-82
2022/12/27 06:21:51;;;;;;;31.97;16.40;;;6.20;94.60;;;;;;6156622;23;20498;-82
2022/12/27 06:24:19;;;;;;;34.50;16.97;;;6.30;94.60;;;;;;6154768;23;20233;-82
2022/12/27 06:26:50;;;;;;;30.65;16.58;;;6.30;94.70;;;;;;6151289;23;20707;-80
2022/12/27 06:29:19;;;;;;;32.67;15.97;;;6.30;94.80;;;;;;6157916;23;20160;-81
2022/12/27 06:31:47;;;;;;;31.83;16.57;;;6.20;94.90;;;;;;6154004;23;20299;-82
2022/12/27 06:34:16;;;;;;;31.17;17.13;;;6.20;95.30;;;;;;6157739;23;20176;-81
2022/12/27 06:37:33;;;;;;;34.27;16.57;;;6.30;95.00;;;;;;6155608;23;20167;-81
2022/12/27 06:50:58;;;;;;;35.35;19.60;;;6.30;95.10;;;;;;5113728;27;20485;-79
2022/12/27 06:53:27;;;;;;;37.27;18.37;;;6.30;95.30;;;;;;5109603;27;20204;-78
2022/12/27 06:55:56;;;;;;;41.40;18.83;;;6.40;95.40;;;;;;5097362;27;20653;-79
2022/12/27 06:58:25;;;;;;;35.73;19.23;;;6.40;95.40;;;;;;5101592;28;20213;-81
2022/12/27 07:00:54;;;;;;;35.10;18.57;;;6.40;95.50;;;;;;5098585;28;20713;-78
2022/12/27 07:03:22;;;;;;;33.93;17.80;;;6.40;95.60;;;;;;5104021;28;20195;-80
2022/12/27 07:05:50;;;;;;;33.77;18.17;;;6.40;95.60;;;;;;5105422;28;20202;-79
2022/12/27 07:08:20;;;;;;;35.20;18.33;;;6.40;95.60;;;;;;5103820;28;20201;-80
2022/12/27 07:10:49;;;;;;;32.83;16.90;;;6.50;95.70;;;;;;5105284;28;20223;-81
2022/12/27 07:13:24;;;;;;;38.37;18.57;;;6.40;95.60;;;;;;5096384;28;20200;-82
2022/12/27 07:15:52;;;;;;;39.45;21.35;;;6.50;95.70;;;;;;5094815;28;20434;-82
2022/12/27 07:18:20;;;;;;;34.63;18.33;;;6.40;95.90;;;;;;5104474;28;20524;-81
2022/12/27 07:20:49;;;;;;;37.13;19.20;;;6.40;95.90;;;;;;5090506;28;20238;-79
2022/12/27 07:23:18;;;;;;;43.07;18.93;;;6.50;96.00;;;;;;5106365;28;20647;-81
2022/12/27 07:25:48;;;;;;;34.73;19.70;;;6.50;96.10;;;;;;5094899;28;20190;-82
2022/12/27 07:28:16;;;;;;;35.20;18.83;;;6.50;96.10;;;;;;5106414;28;20235;-80
2022/12/27 07:30:45;;;;;;;38.90;19.63;;;6.60;96.10;;;;;;5115689;27;20184;-81
2022/12/27 07:33:13;;;;;;;39.63;19.17;;;6.60;96.10;;;;;;5111693;27;20254;-81
2022/12/27 07:35:41;;;;;;;32.43;18.53;;;6.60;96.10;;;;;;5093130;28;20197;-81
2022/12/27 07:38:12;;;;;;;36.03;19.40;;;6.70;96.00;;;;;;5100609;28;20188;-81
2022/12/27 07:40:40;;;;;;;36.17;19.30;;;6.80;96.00;;;;;;5092591;28;20287;-81
2022/12/27 07:43:10;;;;;;;34.03;18.90;;;6.80;95.90;;;;;;5107263;28;20199;-81
2022/12/27 07:45:41;;;;;;;36.77;18.47;;;6.80;95.80;;;;;;5102236;28;20185;-79
2022/12/27 07:48:11;;;;;;;45.50;20.60;;;7.00;95.90;;;;;;5109249;28;20204;-79
2022/12/27 07:50:41;;;;;;;47.03;20.30;;;7.00;95.80;;;;;;5088010;28;20234;-81
2022/12/27 07:53:12;;;;;;;33.70;18.77;;;7.10;95.80;;;;;;5082237;28;20204;-80
2022/12/27 07:55:40;;;;;;;40.90;21.10;;;7.10;95.80;;;;;;5079664;28;20239;-81
2022/12/27 07:58:10;;;;;;;38.23;19.53;;;7.10;95.50;;;;;;5079756;28;20329;-81
2022/12/27 08:00:45;;;;;;;35.80;19.67;;;7.10;95.60;;;;;;5082369;28;20267;-80
2022/12/27 08:03:19;;;;;;;38.10;18.70;;;7.20;95.60;;;;;;5080956;28;20262;-81
2022/12/27 08:05:52;;;;;;;33.33;18.47;;;7.30;95.50;;;;;;5089126;28;20293;-80
2022/12/27 08:08:23;;;;;;;33.77;19.63;;;7.40;95.40;;;;;;5087437;28;20658;-80
2022/12/27 08:10:52;;;;;;;40.30;20.17;;;7.40;95.30;;;;;;5087460;28;20194;-80
2022/12/27 08:13:30;;;;;;;36.63;20.00;;;7.50;95.30;;;;;;5077107;28;20650;-81
2022/12/27 08:15:59;;;;;;;35.80;19.23;;;7.50;95.20;;;;;;5081389;28;20514;-81
2022/12/27 08:18:27;;;;;;;35.47;20.27;;;7.60;95.30;;;;;;5079393;28;20594;-80
2022/12/27 08:20:56;;;;;;;38.47;19.73;;;7.60;95.30;;;;;;5075831;28;20228;-80
2022/12/27 08:28:32;;;;;;;32.37;18.37;;;7.70;95.40;;;;;;5073681;28;20189;-81
2022/12/27 08:34:41;;;;;;;34.63;19.33;;;7.90;95.40;;;;;;5034889;28;20283;-79
2022/12/27 08:37:10;;;;;;;37.70;19.93;;;8.00;95.40;;;;;;5063744;28;20195;-79
2022/12/27 08:39:38;;;;;;;34.87;19.27;;;8.10;95.50;;;;;;5075134;28;20221;-80
2022/12/27 08:42:06;;;;;;;31.63;17.90;;;8.10;95.40;;;;;;5066920;28;20605;-80
2022/12/27 08:44:35;;;;;;;31.83;19.20;;;8.20;95.40;;;;;;5067662;28;20222;-78
2022/12/27 08:47:04;;;;;;;34.00;18.57;;;8.30;95.50;;;;;;5065231;28;20191;-80
2022/12/27 08:49:32;;;;;;;35.23;19.47;;;8.30;95.40;;;;;;5063064;28;20253;-80
2022/12/27 08:52:02;;;;;;;36.50;17.80;;;8.30;95.40;;;;;;5056245;28;20294;-77
2022/12/27 08:54:30;;;;;;;38.87;18.77;;;8.40;95.50;;;;;;5059627;28;20244;-78
2022/12/27 08:56:59;;;;;;;37.30;19.23;;;8.40;95.50;;;;;;5059644;28;20198;-80
2022/12/27 08:59:27;;;;;;;34.23;19.10;;;8.40;95.50;;;;;;5077760;28;20217;-79
2022/12/27 09:01:55;;;;;;;39.07;19.13;;;8.40;95.50;;;;;;5071326;28;20662;-80
2022/12/27 09:04:24;;;;;;;36.37;19.37;;;8.50;95.60;;;;;;5065019;28;20195;-79
2022/12/27 09:06:52;;;;;;;34.33;18.37;;;8.50;95.70;;;;;;5067861;28;20245;-78
2022/12/27 09:09:22;;;;;;;31.33;17.53;;;8.60;95.70;;;;;;5072458;28;20358;-77
2022/12/27 09:11:50;;;;;;;31.77;18.50;;;8.60;95.70;;;;;;5063629;28;20199;-78
2022/12/27 09:14:20;;;;;;;39.90;18.93;;;8.70;95.80;;;;;;5064510;28;20268;-80
2022/12/27 09:16:48;;;;;;;33.60;19.00;;;8.80;95.80;;;;;;5062697;28;20197;-81
2022/12/27 09:19:16;;;;;;;30.90;17.43;;;9.00;95.90;;;;;;5069143;28;20719;-80
2022/12/27 09:25:19;;;;;;;29.40;17.03;;;9.30;96.10;;;;;;5033117;28;20206;-81
2022/12/27 09:27:47;;;;;;;29.53;15.93;;;9.40;96.40;;;;;;5065543;28;20197;-80
2022/12/27 09:30:15;;;;;;;29.63;16.37;;;9.50;96.30;;;;;;5065688;28;20928;-81
2022/12/27 09:32:44;;;;;;;33.00;17.95;;;9.60;96.10;;;;;;5070172;28;20438;-81
2022/12/27 09:35:12;;;;;;;30.03;15.47;;;9.80;96.20;;;;;;5069526;28;20863;-80
2022/12/27 09:37:41;;;;;;;24.50;14.37;;;9.80;96.00;;;;;;5068322;28;20199;-80
2022/12/27 09:40:14;;;;;;;35.13;15.67;;;9.90;96.00;;;;;;5076433;28;20218;-79
2022/12/27 09:42:49;;;;;;;29.67;15.70;;;10.00;96.00;;;;;;5071264;28;20190;-79
2022/12/27 09:45:41;;;;;;;28.13;15.03;;;10.00;95.90;;;;;;5074424;28;20198;-79
2022/12/27 09:48:15;;;;;;;24.47;14.77;;;10.10;95.80;;;;;;5063524;28;20218;-79
2022/12/27 09:50:49;;;;;;;27.17;15.13;;;10.10;95.70;;;;;;5070817;28;20218;-77
2022/12/27 09:53:21;;;;;;;30.47;15.50;;;10.20;95.60;;;;;;5072506;28;20186;-80
2022/12/27 09:55:52;;;;;;;26.63;14.87;;;10.20;95.40;;;;;;5079276;28;20198;-80
2022/12/27 09:58:36;;;;;;;29.87;16.73;;;10.40;95.30;;;;;;5069052;28;20275;-81
2022/12/27 10:01:18;;;;;;;26.40;14.00;;;10.50;95.40;;;;;;5064522;28;20210;-80
2022/12/27 10:03:47;;;;;;;26.53;15.87;;;10.60;95.40;;;;;;5058068;28;20580;-79
2022/12/27 10:06:30;;;;;;;29.53;14.50;;;10.70;95.30;;;;;;5058624;28;20252;-79
2022/12/27 10:09:02;;;;;;;30.63;17.13;;;10.90;95.20;;;;;;5061461;28;20218;-78
2022/12/27 10:11:38;;;;;;;28.30;15.20;;;11.00;95.10;;;;;;5063069;28;20643;-79
2022/12/27 10:14:26;;;;;;;27.90;15.70;;;11.10;94.90;;;;;;5059019;28;20190;-79
2022/12/27 10:17:00;;;;;;;25.80;15.47;;;11.10;94.60;;;;;;5060205;28;20190;-79
2022/12/27 10:19:38;;;;;;;27.43;14.77;;;11.20;94.70;;;;;;5059005;28;20190;-79
2022/12/27 10:22:16;;;;;;;31.03;14.93;;;11.40;94.70;;;;;;5059501;28;20206;-80
2022/12/27 10:24:50;;;;;;;26.27;14.40;;;11.50;94.80;;;;;;5068267;28;20198;-80
2022/12/27 10:27:22;;;;;;;29.27;15.73;;;11.60;94.60;;;;;;5064529;28;20194;-78
2022/12/27 10:29:55;;;;;;;25.27;14.57;;;11.70;94.50;;;;;;5072912;28;20244;-78
2022/12/27 10:32:23;;;;;;;25.83;14.40;;;11.80;94.50;;;;;;5063960;28;20403;-78
2022/12/27 10:34:55;;;;;;;24.97;14.07;;;11.90;94.40;;;;;;5067616;28;20683;-78
2022/12/27 10:37:24;;;;;;;26.00;14.00;;;12.00;94.40;;;;;;5053271;28;20802;-77
2022/12/27 10:39:52;;;;;;;25.23;13.77;;;12.10;94.30;;;;;;5062176;28;20197;-78
2022/12/27 10:42:34;;;;;;;26.77;12.83;;;12.20;94.10;;;;;;5065390;28;20271;-78
2022/12/27 10:45:26;;;;;;;24.40;13.43;;;12.30;94.00;;;;;;5064530;28;20195;-78
2022/12/27 10:47:57;;;;;;;27.57;13.83;;;12.50;93.90;;;;;;5063130;28;20199;-78
2022/12/27 10:50:28;;;;;;;20.90;12.40;;;12.60;93.90;;;;;;5061032;28;20265;-78
2022/12/27 10:52:56;;;;;;;23.93;12.93;;;12.70;93.60;;;;;;5057270;28;20605;-77
2022/12/27 10:55:35;;;;;;;24.60;13.23;;;12.80;93.50;;;;;;5054053;28;20194;-79
2022/12/27 10:58:20;;;;;;;24.23;13.77;;;12.80;93.10;;;;;;5058687;28;20199;-79
2022/12/27 11:00:55;;;;;;;26.20;14.20;;;12.90;92.90;;;;;;5067813;28;20206;-78
2022/12/27 11:03:27;;;;;;;24.98;14.02;;;13.00;92.80;;;;;;5059842;28;20447;-80
2022/12/27 11:06:04;;;;;;;23.47;12.53;;;13.10;92.90;;;;;;5063105;28;20235;-80
2022/12/27 11:08:33;;;;;;;23.40;12.97;;;13.10;92.20;;;;;;5054500;28;20186;-77
2022/12/27 11:11:13;;;;;;;23.27;12.60;;;13.20;92.40;;;;;;5068212;28;20251;-79
2022/12/27 11:13:41;;;;;;;20.93;12.43;;;13.30;92.20;;;;;;5072039;28;20236;-78
2022/12/27 11:16:28;;;;;;;22.10;12.27;;;13.40;91.90;;;;;;5059008;28;20639;-80
2022/12/27 11:19:21;;;;;;;26.65;13.57;;;13.50;91.70;;;;;;5051859;28;20727;-80
2022/12/27 11:21:51;;;;;;;24.23;12.60;;;13.60;91.20;;;;;;5053193;28;20312;-81
2022/12/27 11:24:21;;;;;;;21.00;11.73;;;13.60;90.90;;;;;;5054024;28;20194;-80
2022/12/27 11:26:52;;;;;;;27.67;12.10;;;13.70;90.70;;;;;;5066558;28;20189;-79
2022/12/27 11:29:23;;;;;;;20.33;10.57;;;13.70;90.50;;;;;;5067890;28;20202;-80
2022/12/27 11:31:54;;;;;;;22.50;11.27;;;13.70;90.50;;;;;;5072388;28;20210;-78
2022/12/27 11:34:29;;;;;;;18.50;10.73;;;13.80;90.50;;;;;;5070825;28;20191;-81
2022/12/27 11:37:05;;;;;;;22.03;11.47;;;13.80;90.00;;;;;;5063703;28;20288;-81
2022/12/27 11:39:45;;;;;;;24.37;11.10;;;13.90;90.10;;;;;;5060056;28;20287;-78
2022/12/27 11:42:21;;;;;;;23.67;11.80;;;13.90;90.20;;;;;;5063066;28;20238;-80
2022/12/27 11:44:59;;;;;;;19.87;10.70;;;14.00;90.10;;;;;;5059342;28;20197;-78
2022/12/27 11:47:35;;;;;;;20.13;12.00;;;14.10;90.20;;;;;;5069716;28;20195;-77
2022/12/27 11:50:25;;;;;;;22.93;11.03;;;14.10;90.10;;;;;;5065680;28;20222;-80
2022/12/27 11:53:08;;;;;;;20.53;10.90;;;14.20;89.60;;;;;;5062104;28;20583;-79
2022/12/27 11:55:59;;;;;;;19.20;10.93;;;14.20;89.60;;;;;;5065102;28;20277;-78
2022/12/27 11:58:53;;;;;;;16.60;9.97;;;14.30;89.60;;;;;;5067187;28;20193;-77
2022/12/27 12:01:57;;;;;;;17.70;10.00;;;14.40;89.30;;;;;;5061315;28;20218;-79
2022/12/27 12:04:57;;;;;;;17.33;10.00;;;14.50;89.00;;;;;;5063639;28;20694;-79
2022/12/27 12:07:43;;;;;;;17.53;9.83;;;14.50;88.70;;;;;;5073501;28;20201;-80
2022/12/27 12:10:21;;;;;;;18.23;10.17;;;14.60;88.80;;;;;;5062611;28;20194;-79
2022/12/27 12:13:07;;;;;;;18.73;10.13;;;14.60;88.70;;;;;;5069245;28;20548;-80
2022/12/27 12:16:05;;;;;;;16.77;9.53;;;14.70;88.60;;;;;;5068617;28;20244;-79
2022/12/27 12:18:52;;;;;;;15.87;9.13;;;14.80;88.70;;;;;;5064773;28;20564;-79
2022/12/27 12:21:30;;;;;;;20.70;9.37;;;14.90;88.60;;;;;;5060074;28;20821;-80
2022/12/27 12:24:36;;;;;;;18.57;10.00;;;14.90;88.60;;;;;;5070818;28;20213;-80
2022/12/27 12:27:29;;;;;;;17.90;9.77;;;15.00;88.10;;;;;;5078103;28;20190;-80
2022/12/27 12:30:32;;;;;;;21.47;10.03;;;15.10;87.80;;;;;;5070276;28;20259;-79
2022/12/27 12:33:21;;;;;;;16.63;9.63;;;15.10;87.40;;;;;;5076085;28;20196;-78
2022/12/27 12:36:03;;;;;;;14.27;9.10;;;15.20;86.60;;;;;;5066071;28;20244;-82
2022/12/27 12:38:42;;;;;;;16.30;10.03;;;15.30;87.10;;;;;;5063510;28;20649;-79
2022/12/27 12:41:57;;;;;;;23.93;11.37;;;15.30;87.00;;;;;;5068358;28;20216;-81
2022/12/27 12:45:10;;;;;;;21.10;10.70;;;15.40;87.30;;;;;;5012992;28;21079;-79
2022/12/27 12:48:02;;;;;;;20.90;12.90;;;15.50;87.50;;;;;;5022819;28;20191;-80
2022/12/27 12:50:47;;;;;;;20.50;11.53;;;15.50;87.60;;;;;;5063811;28;20317;-80
2022/12/27 12:53:44;;;;;;;21.73;12.57;;;15.50;87.50;;;;;;5065108;28;20194;-80
2022/12/27 12:56:32;;;;;;;22.07;12.00;;;15.60;87.60;;;;;;5069117;28;20660;-81
2022/12/27 12:59:22;;;;;;;20.03;11.67;;;15.70;87.90;;;;;;5072491;28;20228;-80
2022/12/27 13:02:00;;;;;;;18.60;10.30;;;15.70;88.60;;;;;;5064821;28;20214;-80
2022/12/27 13:04:40;;;;;;;16.27;10.13;;;15.80;88.50;;;;;;5061724;28;20244;-81
2022/12/27 13:07:28;;;;;;;17.93;9.73;;;16.00;88.20;;;;;;5066813;28;20625;-82
2022/12/27 13:10:30;;;;;;;19.47;11.27;;;16.20;88.60;;;;;;5062415;28;20182;-80
2022/12/27 13:13:06;;;;;;;17.53;9.73;;;16.40;88.30;;;;;;5060881;28;20190;-79
2022/12/27 13:15:50;;;;;;;19.80;9.73;;;16.50;87.20;;;;;;5055133;28;20198;-79
2022/12/27 13:18:26;;;;;;;17.52;10.27;;;16.70;88.00;;;;;;5070880;28;20195;-79
2022/12/27 13:21:13;;;;;;;17.27;9.23;;;16.80;86.50;;;;;;5060945;28;20558;-80
2022/12/27 13:23:56;;;;;;;19.25;10.10;;;16.90;85.90;;;;;;5071494;28;20339;-82
2022/12/27 13:26:36;;;;;;;17.73;9.52;;;17.00;86.20;;;;;;5061051;28;20271;-81
2022/12/27 13:29:38;;;;;;;14.85;9.10;;;17.20;85.00;;;;;;5051032;28;20198;-81
2022/12/27 13:32:16;;;;;;;26.27;10.00;;;18.30;81.20;;;;;;5056924;28;20299;-82
2022/12/27 13:34:58;;;;;;;15.55;8.88;;;19.60;78.80;;;;;;5067922;28;20186;-80
2022/12/27 13:37:40;;;;;;;18.60;8.48;;;21.60;72.60;;;;;;5054240;28;20194;-81
2022/12/27 13:40:35;;;;;;;15.00;9.15;;;22.80;68.40;;;;;;5070279;28;20592;-79
2022/12/27 13:47:08;;;;;;;13.45;7.97;;;25.20;63.30;;;;;;5069499;27;20815;-79
2022/12/27 13:53:11;;;;;;;14.80;8.13;;;26.50;60.90;;;;;;5068635;28;20221;-82
2022/12/27 13:55:53;;;;;;;13.77;7.85;;;26.00;61.90;;;;;;5065548;28;20216;-80
2022/12/27 13:58:48;;;;;;;16.40;9.27;;;26.20;60.40;;;;;;5075594;28;20276;-79
2022/12/27 14:01:36;;;;;;;17.42;7.70;;;25.70;60.30;;;;;;5073704;28;20197;-79
2022/12/27 14:04:23;;;;;;;17.63;8.85;;;25.90;60.00;;;;;;5066843;28;20185;-78
2022/12/27 14:07:30;;;;;;;13.27;8.43;;;25.90;59.20;;;;;;5066835;28;20206;-79
2022/12/27 14:10:21;;;;;;;13.13;7.93;;;25.30;59.10;;;;;;5080497;28;20217;-79
2022/12/27 14:13:01;;;;;;;17.60;8.90;;;24.10;59.50;;;;;;5073620;28;20193;-79
2022/12/27 14:15:52;;;;;;;18.88;8.27;;;23.30;60.50;;;;;;5073559;28;20244;-78
2022/12/27 14:18:36;;;;;;;12.70;8.10;;;22.60;62.20;;;;;;5074971;28;20206;-78
2022/12/27 14:22:14;;;;;;;;;;;;;;;;;;;;;
2022/12/27 14:29:48;;;;;;;17.48;9.30;;;20.60;66.20;;;;;;5054385;28;20448;-80
2022/12/27 14:32:45;;;;;;;15.32;8.75;;;20.00;67.70;;;;;;5074862;28;20193;-80
2022/12/27 14:35:52;;;;;;;17.45;8.82;;;19.60;68.30;;;;;;5041049;28;20230;-79
2022/12/27 14:38:59;;;;;;;16.33;9.30;;;19.20;69.20;;;;;;5036370;28;20199;-79
2022/12/27 14:42:27;;;;;;;18.03;10.13;;;18.70;70.00;;;;;;5037308;28;20251;-80
2022/12/27 14:45:25;;;;;;;19.53;10.57;;;18.40;70.90;;;;;;5002423;28;20605;-80
2022/12/27 14:48:10;;;;;;;21.70;11.27;;;18.00;71.80;;;;;;4937923;28;20555;-79
2022/12/27 14:51:24;;;;;;;19.70;10.83;;;17.80;73.20;;;;;;5016608;28;20563;-81
2022/12/27 14:55:00;;;;;;;20.90;9.87;;;17.50;73.80;;;;;;5003135;28;20199;-80
2022/12/27 14:57:36;;;;;;;20.80;11.37;;;17.20;74.10;;;;;;5021550;28;20197;-80
2022/12/27 15:00:14;;;;;;;19.13;12.17;;;17.00;74.60;;;;;;5013695;28;20199;-80
2022/12/27 15:03:08;;;;;;;21.37;11.50;;;16.80;75.00;;;;;;5014908;28;20312;-79
2022/12/27 15:05:47;;;;;;;22.33;12.90;;;16.60;75.50;;;;;;5009010;28;20731;-79
2022/12/27 15:08:31;;;;;;;29.00;14.20;;;16.50;75.90;;;;;;5022093;28;20198;-80
2022/12/27 15:11:15;;;;;;;23.75;13.63;;;16.30;76.20;;;;;;5015706;28;20975;-81
2022/12/27 15:13:59;;;;;;;23.17;11.73;;;16.20;77.60;;;;;;5007706;28;20200;-78
2022/12/27 15:16:40;;;;;;;19.23;11.57;;;16.00;77.70;;;;;;5023161;28;20188;-79
2022/12/27 15:19:25;;;;;;;23.30;10.17;;;15.90;77.90;;;;;;5016065;28;20830;-79
2022/12/27 15:22:06;;;;;;;21.90;10.80;;;15.70;78.20;;;;;;5017010;28;20293;-78
2022/12/27 15:24:48;;;;;;;24.03;12.93;;;15.60;78.50;;;;;;5018884;28;20540;-81
2022/12/27 15:27:25;;;;;;;29.70;16.43;;;15.50;78.80;;;;;;5003965;28;20300;-81
2022/12/27 15:30:08;;;;;;;29.27;15.20;;;15.30;79.00;;;;;;5008403;28;20254;-81
2022/12/27 15:32:46;;;;;;;29.40;16.53;;;15.20;79.40;;;;;;5014470;28;20683;-79
2022/12/27 15:35:52;;;;;;;26.83;14.13;;;15.10;79.60;;;;;;5020910;28;20238;-81
2022/12/27 15:38:39;;;;;;;36.17;17.97;;;14.90;79.90;;;;;;5004174;28;20310;-80